ADDS METAR Data INFO
IDs: Format: Raw Decoded Include TAF

Data at: 1020 UTC 12 Dec 2017

KTTA 121010Z AUTO 00000KT 10SM CLR 02/00 A2975 RMK AO2 T00180000
KTTA 120950Z AUTO 00000KT 10SM CLR 02/00 A2976 RMK AO2 T00151001
KTTA 120930Z AUTO 19003KT 10SM CLR 01/M01 A2976 RMK AO2 T00051008
KTTA 120910Z AUTO 17003KT 10SM CLR 01/M01 A2978 RMK AO2 T00051006
KTTA 120850Z AUTO 17003KT 10SM CLR 00/M01 A2979 RMK AO2 T00031006
KTTA 120830Z AUTO 18003KT 10SM CLR M01/M01 A2980 RMK AO2 T10091015
KTTA 120810Z AUTO 00000KT 10SM CLR M01/M01 A2981 RMK AO2 T10071012
KTTA 120750Z AUTO 00000KT 10SM CLR M01/M01 A2982 RMK AO2 T10081015
KTTA 120730Z AUTO 00000KT 10SM CLR 00/M01 A2983 RMK AO2 T10021010
KTTA 120710Z AUTO 00000KT 10SM CLR M01/M01 A2985 RMK AO2 T10071013
KTTA 120650Z AUTO 00000KT 10SM CLR M01/M02 A2984 RMK AO2 T10071021
KTTA 120630Z AUTO 00000KT 10SM CLR 03/M01 A2985 RMK AO2 T00291007
KTTA 120610Z AUTO 18004KT 10SM CLR 03/M01 A2986 RMK AO2 T00271009
KTTA 120550Z AUTO 00000KT 10SM CLR 01/M02 A2988 RMK AO2 T00061016 10027 21017 401201063
KTTA 120530Z AUTO 00000KT 10SM CLR M01/M02 A2988 RMK AO2 T10091020
KTTA 120510Z AUTO 00000KT 10SM CLR M01/M02 A2990 RMK AO2 T10131023
KTTA 120450Z AUTO 00000KT 10SM CLR M01/M02 A2992 RMK AO2 T10151023
KTTA 120430Z AUTO 00000KT 10SM CLR M01/M02 A2993 RMK AO2 T10101017
KTTA 120410Z AUTO 00000KT 10SM CLR M01/M01 A2994 RMK AO2 T10071012
KTTA 120350Z AUTO 00000KT 10SM CLR 00/M01 A2995 RMK AO2 T10051012
KTTA 120330Z AUTO 00000KT 10SM CLR 00/M01 A2996 RMK AO2 T10051012
KTTA 120310Z AUTO 00000KT 10SM CLR 00/M01 A2997 RMK AO2 T00011007
KTTA 120250Z AUTO 00000KT 10SM CLR 00/M01 A2997 RMK AO2 T00001009
KTTA 120230Z AUTO 00000KT 10SM CLR 00/M01 A2998 RMK AO2 T00001009
KTTA 120210Z AUTO 00000KT 10SM CLR 00/M01 A2998 RMK AO2 T00011008
KTTA 120150Z AUTO 00000KT 10SM CLR 01/00 A2998 RMK AO2 T00051001
KTTA 120130Z AUTO 00000KT 10SM CLR 01/M01 A2998 RMK AO2 T00111008
KTTA 120110Z AUTO 00000KT 10SM CLR 02/M01 A2998 RMK AO2 T00161007
KTTA 120050Z AUTO 00000KT 10SM CLR 01/00 A2999 RMK AO2 T00121001
KTTA 120030Z AUTO 00000KT 10SM CLR 02/00 A3000 RMK AO2 T00150000
KTTA 120010Z AUTO 00000KT 10SM CLR 02/00 A3000 RMK AO2 T00170001
KTTA 112350Z AUTO 00000KT 10SM CLR 02/00 A3001 RMK AO2 T00190002 10120 20018
KTTA 112330Z AUTO 00000KT 10SM CLR 02/00 A3001 RMK AO2 T00230004
KTTA 112310Z AUTO 00000KT 10SM CLR 04/01 A3001 RMK AO2 T00370007
KTTA 112250Z AUTO 00000KT 10SM CLR 04/01 A3001 RMK AO2 T00440010
KTTA 112230Z AUTO 00000KT 10SM CLR 05/01 A3001 RMK AO2 T00540006
KTTA 112210Z AUTO 00000KT 10SM CLR 07/00 A3000 RMK AO2 T00710000
KTTA 112150Z AUTO 16003KT 10SM CLR 09/00 A3000 RMK AO2 T00901002
KTTA 112130Z AUTO 17003KT 10SM CLR 11/M01 A3000 RMK AO2 T01051006
KTTA 112110Z AUTO 16003KT 10SM CLR 11/M01 A3001 RMK AO2 T01111013
KTTA 112050Z AUTO 16003KT 10SM CLR 12/M01 A3002 RMK AO2 T01171013
KTTA 112030Z AUTO 00000KT 10SM CLR 12/M02 A3003 RMK AO2 T01191019
KTTA 112010Z AUTO 25004KT 10SM CLR 12/M02 A3003 RMK AO2 T01201020
KTTA 111950Z AUTO 22007KT 10SM CLR 12/M02 A3003 RMK AO2 T01161025
KTTA 111930Z AUTO 28003KT 10SM CLR 12/M02 A3004 RMK AO2 T01171023
KTTA 111910Z AUTO 22005KT 10SM CLR 12/M02 A3005 RMK AO2 T01151021
KTTA 111850Z AUTO 23004KT 10SM CLR 11/M02 A3006 RMK AO2 T01091024
KTTA 111830Z AUTO 00000KT 10SM CLR 10/M03 A3006 RMK AO2 T01041033
KTTA 111810Z AUTO 25004KT 10SM CLR 10/M03 A3007 RMK AO2 T01011026
KTTA 111750Z AUTO 00000KT 10SM CLR 10/M02 A3007 RMK AO2 T00971018 10097 21063
KTTA 111730Z AUTO 00000KT 10SM CLR 09/M01 A3008 RMK AO2 T00891015
KTTA 111710Z AUTO 16004KT 10SM CLR 09/M01 A3010 RMK AO2 T00861013
KTTA 111650Z AUTO 00000KT 10SM CLR 08/M02 A3011 RMK AO2 T00791021
KTTA 111630Z AUTO 31004KT 10SM CLR 07/M02 A3012 RMK AO2 T00731018
KTTA 111610Z AUTO 00000KT 10SM CLR 06/M02 A3014 RMK AO2 T00611020
KTTA 111550Z AUTO 00000KT 10SM CLR 05/M02 A3014 RMK AO2 T00501019
KTTA 111530Z AUTO 00000KT 10SM CLR 04/M01 A3015 RMK AO2 T00371015
KTTA 111510Z AUTO 17004KT 10SM CLR 03/M02 A3016 RMK AO2 T00261023
KTTA 111450Z AUTO 00000KT 10SM CLR 01/M02 A3016 RMK AO2 T00131021
KTTA 111430Z AUTO 00000KT 10SM CLR 00/M03 A3016 RMK AO2 T00011026
KTTA 111410Z AUTO 00000KT 10SM CLR M01/M02 A3016 RMK AO2 T10061024
KTTA 111350Z AUTO 00000KT 10SM CLR M02/M03 A3015 RMK AO2 T10241030
KTTA 111330Z AUTO 00000KT 10SM CLR M04/M05 A3015 RMK AO2 T10391046
KTTA 111310Z AUTO 00000KT 10SM CLR M05/M05 A3015 RMK AO2 T10471052
KTTA 111250Z AUTO 00000KT 10SM CLR M05/M06 A3014 RMK AO2 T10551060
KTTA 111230Z AUTO 00000KT 10SM CLR M06/M06 A3014 RMK AO2 T10571062
KTTA 111210Z AUTO 00000KT 10SM CLR M06/M07 A3014 RMK AO2 T10601067
KTTA 111150Z AUTO 00000KT 10SM CLR M06/M06 A3014 RMK AO2 T10561062 11035 21059
KTTA 111130Z AUTO 00000KT 10SM CLR M06/M06 A3014 RMK AO2 T10581064
KTTA 111110Z AUTO 00000KT 10SM CLR M05/M06 A3014 RMK AO2 T10551060
KTTA 111050Z AUTO 00000KT 10SM CLR M05/M05 A3013 RMK AO2 T10491054
KTTA 111030Z AUTO 00000KT 10SM CLR M05/M06 A3012 RMK AO2 T10521056
KTTA 111010Z AUTO 00000KT 10SM CLR M05/M06 A3012 RMK AO2 T10511058
KTTA 110950Z AUTO 00000KT 10SM CLR M05/M05 A3012 RMK AO2 T10501055
KTTA 110930Z AUTO 00000KT 10SM CLR M05/M05 A3012 RMK AO2 T10461050
KTTA 110910Z AUTO 00000KT 10SM CLR M05/M05 A3012 RMK AO2 T10471051
KTTA 110850Z AUTO 00000KT 10SM CLR M05/M06 A3012 RMK AO2 T10511056
KTTA 110830Z AUTO 00000KT 10SM CLR M05/M05 A3012 RMK AO2 T10461051
KTTA 110810Z AUTO 00000KT 10SM CLR M05/M05 A3013 RMK AO2 T10501055
KTTA 110750Z AUTO 00000KT 10SM CLR M04/M05 A3014 RMK AO2 T10441047
KTTA 110730Z AUTO 00000KT 10SM CLR M05/M05 A3014 RMK AO2 T10481053
KTTA 110710Z AUTO 00000KT 10SM CLR M04/M05 A3014 RMK AO2 T10421046
KTTA 110650Z AUTO 00000KT 10SM CLR M04/M05 A3015 RMK AO2 T10431046
KTTA 110630Z AUTO 00000KT 10SM CLR M04/M04 A3014 RMK AO2 T10381041
KTTA 110610Z AUTO 00000KT 10SM CLR M04/M04 A3014 RMK AO2 T10391044
KTTA 110550Z AUTO 00000KT 10SM CLR M04/M04 A3015 RMK AO2 T10381044 11003 21040 400681040
KTTA 110530Z AUTO 00000KT 10SM CLR M03/M04 A3015 RMK AO2 T10351040
KTTA 110510Z AUTO 00000KT 10SM CLR M04/M04 A3015 RMK AO2 T10361041
KTTA 110450Z AUTO 00000KT 10SM CLR M03/M04 A3015 RMK AO2 T10341039
KTTA 110430Z AUTO 00000KT 10SM CLR M03/M04 A3015 RMK AO2 T10311040
KTTA 110410Z AUTO 00000KT 10SM CLR M04/M04 A3014 RMK AO2 T10371043
KTTA 110350Z AUTO 00000KT 10SM CLR M03/M04 A3015 RMK AO2 T10331036
KTTA 110330Z AUTO 00000KT 10SM CLR M03/M04 A3016 RMK AO2 T10321036
KTTA 110310Z AUTO 00000KT 10SM CLR M03/M03 A3016 RMK AO2 T10281034
KTTA 110250Z AUTO 00000KT 10SM CLR M03/M03 A3015 RMK AO2 T10281035
KTTA 110230Z AUTO 00000KT 10SM CLR M03/M03 A3015 RMK AO2 T10261033
KTTA 110210Z AUTO 00000KT 10SM CLR M03/M03 A3016 RMK AO2 T10261035
KTTA 110150Z AUTO 00000KT 10SM CLR M03/M03 A3016 RMK AO2 T10261033
KTTA 110130Z AUTO 00000KT 10SM CLR M02/M03 A3016 RMK AO2 T10221032
KTTA 110110Z AUTO 00000KT 10SM CLR M02/M03 A3015 RMK AO2 T10181027
KTTA 110050Z AUTO 00000KT 10SM CLR M01/M02 A3015 RMK AO2 T10091022
KTTA 110030Z AUTO 00000KT 10SM CLR 00/M02 A3015 RMK AO2 T10051022
KTTA 110010Z AUTO 00000KT 10SM CLR M01/M02 A3015 RMK AO2 T10061023
KTTA 102350Z AUTO 00000KT 10SM CLR 00/M02 A3015 RMK AO2 T00001020 10068 21001
KTTA 102330Z AUTO 00000KT 10SM CLR 00/M02 A3015 RMK AO2 T00011018
KTTA 102310Z AUTO 00000KT 10SM CLR 00/M02 A3014 RMK AO2 T00001018
KTTA 102250Z AUTO 00000KT 10SM CLR 01/M02 A3014 RMK AO2 T00091019
KTTA 102230Z AUTO 00000KT 10SM CLR 02/M02 A3014 RMK AO2 T00181019